createdAt,value
2022-08-07T00:02:35.435Z,64.66
2022-08-07T00:04:04.768Z,64.86
2022-08-07T00:06:33.791Z,64.99
2022-08-07T00:09:17.226Z,65.16
2022-08-07T00:11:55.362Z,65.14
2022-08-07T00:14:25.474Z,65.30
2022-08-07T00:16:59.084Z,65.55
2022-08-07T00:20:00.689Z,65.34
2022-08-07T00:22:24.791Z,65.52
2022-08-07T00:25:11.022Z,65.63
2022-08-07T00:27:53.774Z,66.07
2022-08-07T00:30:45.980Z,65.91
2022-08-07T00:33:13.404Z,65.92
2022-08-07T00:35:40.476Z,66.42
2022-08-07T00:38:07.420Z,66.56
2022-08-07T00:40:39.624Z,66.87
2022-08-07T00:44:00.947Z,66.63
2022-08-07T00:45:58.336Z,66.84
2022-08-07T00:48:32.084Z,66.70
2022-08-07T00:51:03.045Z,67.16
2022-08-07T00:53:39.101Z,67.16
2022-08-07T00:56:37.872Z,67.19
2022-08-07T00:59:06.944Z,66.86
2022-08-07T01:01:44.126Z,66.65
2022-08-07T01:04:11.570Z,66.45
2022-08-07T01:06:51.848Z,66.44
2022-08-07T01:10:04.780Z,66.79
2022-08-07T01:12:29.610Z,67.26
2022-08-07T01:15:01.738Z,67.49
2022-08-07T01:17:31.824Z,67.69
2022-08-07T01:20:01.819Z,67.66
2022-08-07T01:22:31.606Z,67.87
2022-08-07T01:25:05.123Z,68.16
2022-08-07T01:27:51.131Z,68.04
2022-08-07T01:30:19.557Z,67.77
2022-08-07T01:32:55.114Z,67.83
2022-08-07T01:35:24.356Z,68.02
2022-08-07T01:37:53.179Z,68.31
2022-08-07T01:40:21.607Z,68.50
2022-08-07T01:42:59.125Z,68.48
2022-08-07T01:45:37.174Z,68.71
2022-08-07T01:48:17.678Z,68.59
2022-08-07T01:51:24.558Z,69.00
2022-08-07T01:54:06.241Z,68.83
2022-08-07T01:56:39.339Z,68.43
2022-08-07T01:59:15.688Z,68.08
2022-08-07T02:02:01.569Z,67.88
2022-08-07T02:04:55.766Z,67.86
2022-08-07T02:07:44.689Z,67.76
2022-08-07T02:10:15.968Z,67.62
2022-08-07T02:12:46.616Z,67.49
2022-08-07T02:15:22.771Z,67.12
2022-08-07T02:17:52.020Z,66.90
2022-08-07T02:20:23.837Z,66.74
2022-08-07T02:23:02.698Z,66.48
2022-08-07T02:26:31.380Z,66.65
2022-08-07T02:28:24.688Z,66.35
2022-08-07T02:30:56.343Z,66.42
2022-08-07T02:33:24.266Z,66.23
2022-08-07T02:36:29.816Z,65.95
2022-08-07T02:38:51.024Z,65.88
2022-08-07T02:41:25.503Z,65.29
2022-08-07T02:44:01.384Z,64.93
2022-08-07T02:46:28.834Z,64.55
2022-08-07T02:48:57.779Z,64.42
2022-08-07T02:51:42.180Z,63.95
2022-08-07T02:54:13.126Z,63.67
2022-08-07T02:56:41.250Z,63.44
2022-08-07T02:59:09.816Z,63.54
2022-08-07T03:01:40.155Z,63.07
2022-08-07T03:04:13.008Z,63.09
2022-08-07T03:06:45.986Z,63.39
2022-08-07T03:09:42.085Z,63.29
2022-08-07T03:12:04.251Z,63.01
2022-08-07T03:14:37.301Z,63.01
2022-08-07T03:17:05.553Z,63.02
2022-08-07T03:19:39.920Z,62.89
2022-08-07T03:22:18.946Z,62.92
2022-08-07T03:24:49.143Z,62.57
2022-08-07T03:27:30.869Z,62.33
2022-08-07T03:30:04.448Z,61.89
2022-08-07T03:32:37.659Z,62.51
2022-08-07T03:35:17.674Z,62.37
2022-08-07T03:37:53.759Z,62.35
2022-08-07T03:40:23.980Z,62.22
2022-08-07T03:43:01.673Z,62.22
2022-08-07T03:45:34.312Z,61.96
2022-08-07T03:48:11.476Z,61.90
2022-08-07T03:50:39.102Z,61.86
2022-08-07T03:53:10.492Z,61.64
2022-08-07T03:55:57.791Z,61.41
2022-08-07T03:59:05.171Z,61.19
2022-08-07T04:01:13.838Z,61.15
2022-08-07T04:03:53.303Z,61.18
2022-08-07T04:06:37.698Z,61.50
2022-08-07T04:09:15.613Z,60.81
2022-08-07T04:12:27.143Z,60.73
2022-08-07T04:14:43.746Z,60.66
2022-08-07T04:17:20.456Z,60.31
2022-08-07T04:19:51.996Z,60.30
2022-08-07T04:22:27.477Z,60.10
2022-08-07T04:24:58.510Z,60.05
2022-08-07T04:27:26.566Z,59.85
2022-08-07T04:30:01.335Z,59.77
2022-08-07T04:32:47.867Z,59.57
2022-08-07T04:35:17.155Z,59.94
2022-08-07T04:38:03.571Z,59.44
2022-08-07T04:40:33.515Z,59.34
2022-08-07T04:43:03.371Z,59.21
2022-08-07T04:46:01.135Z,58.94
2022-08-07T04:49:00.063Z,58.93
2022-08-07T04:51:38.107Z,58.80
2022-08-07T04:54:07.824Z,58.25
2022-08-07T04:58:10.762Z,57.67
2022-08-07T05:00:12.632Z,58.10
2022-08-07T05:02:27.576Z,58.54
2022-08-07T05:05:11.568Z,58.22
2022-08-07T05:08:01.349Z,58.59
2022-08-07T05:10:31.722Z,58.86
2022-08-07T05:14:51.994Z,58.85
2022-08-07T05:16:04.395Z,58.69
2022-08-07T05:18:36.143Z,58.04
2022-08-07T05:21:05.499Z,58.01
2022-08-07T05:23:52.284Z,57.40
2022-08-07T05:26:23.927Z,57.20
2022-08-07T05:29:04.326Z,56.56
2022-08-07T05:31:37.771Z,56.42
2022-08-07T05:34:11.133Z,56.09
2022-08-07T05:36:52.826Z,55.63
2022-08-07T05:40:14.418Z,54.85
2022-08-07T05:42:33.835Z,53.79
2022-08-07T05:45:25.973Z,53.41
2022-08-07T05:48:01.970Z,53.02
2022-08-07T05:50:39.566Z,52.43
2022-08-07T05:54:12.100Z,52.45
2022-08-07T05:56:02.014Z,52.54
2022-08-07T05:58:36.733Z,52.43
2022-08-07T06:01:08.488Z,52.98
2022-08-07T06:03:56.572Z,52.67
2022-08-07T06:06:29.965Z,52.39
2022-08-07T06:09:04.590Z,52.83
2022-08-07T06:11:34.820Z,52.55
2022-08-07T06:14:11.595Z,52.72
2022-08-07T06:16:55.930Z,53.37
2022-08-07T06:19:52.070Z,53.83
2022-08-07T06:22:24.045Z,53.73
2022-08-07T06:25:13.616Z,53.63
2022-08-07T06:27:44.010Z,53.61
2022-08-07T06:30:35.454Z,52.65
2022-08-07T06:33:16.189Z,52.87
2022-08-07T06:36:06.639Z,52.83
2022-08-07T06:38:59.662Z,52.69
2022-08-07T06:41:58.794Z,52.54
2022-08-07T06:44:40.195Z,52.63
2022-08-07T06:47:12.498Z,52.97
2022-08-07T06:49:51.229Z,52.95
2022-08-07T06:52:31.917Z,52.75
2022-08-07T06:55:31.569Z,52.98
2022-08-07T06:58:00.145Z,53.17
2022-08-07T07:00:31.709Z,52.90
2022-08-07T07:03:10.671Z,52.33
2022-08-07T07:06:03.134Z,51.99
2022-08-07T07:11:13.161Z,51.29
2022-08-07T07:13:58.403Z,49.72
2022-08-07T07:16:30.785Z,49.63
2022-08-07T07:18:59.926Z,48.83
2022-08-07T07:21:40.366Z,49.62
2022-08-07T07:24:20.323Z,49.77
2022-08-07T07:26:52.346Z,49.82
2022-08-07T07:29:56.216Z,50.27
2022-08-07T07:32:11.610Z,50.37
2022-08-07T07:37:45.438Z,50.31
2022-08-07T07:40:10.067Z,50.32
2022-08-07T07:42:42.952Z,48.92
2022-08-07T07:45:14.644Z,48.09
2022-08-07T07:47:52.129Z,48.32
2022-08-07T07:50:32.772Z,47.76
2022-08-07T07:53:05.938Z,47.31
2022-08-07T07:55:57.507Z,46.83
2022-08-07T07:58:40.488Z,45.57
2022-08-07T08:02:03.271Z,43.84
2022-08-07T08:04:06.429Z,42.44
2022-08-07T08:06:39.705Z,41.91
2022-08-07T08:09:06.608Z,41.98
2022-08-07T08:11:47.407Z,42.64
2022-08-07T08:14:26.384Z,43.14
2022-08-07T08:16:56.755Z,42.94
2022-08-07T08:20:17.329Z,42.81
2022-08-07T08:22:55.989Z,41.01
2022-08-07T08:25:49.363Z,39.59
2022-08-07T08:28:23.940Z,38.88
2022-08-07T08:31:05.207Z,38.81
2022-08-07T08:33:34.244Z,38.23
2022-08-07T08:36:02.076Z,38.13
2022-08-07T08:38:36.724Z,37.20
2022-08-07T08:41:57.770Z,36.63
2022-08-07T08:44:29.197Z,35.69
2022-08-07T08:47:01.648Z,35.57
2022-08-07T08:50:02.238Z,34.43
2022-08-07T08:52:32.172Z,31.89
2022-08-07T08:55:54.435Z,33.63
2022-08-07T08:58:36.058Z,34.87
2022-08-07T09:01:16.164Z,36.42
2022-08-07T09:03:58.018Z,37.08
2022-08-07T09:06:40.341Z,37.88
2022-08-07T09:09:30.255Z,37.77
2022-08-07T09:12:30.401Z,37.37
2022-08-07T09:16:21.620Z,35.33
2022-08-07T09:18:15.712Z,34.86
2022-08-07T09:20:57.934Z,35.40
2022-08-07T09:24:32.814Z,36.93
2022-08-07T09:26:25.234Z,36.70
2022-08-07T09:30:04.215Z,36.80
2022-08-07T09:31:49.377Z,35.83
2022-08-07T09:34:34.636Z,35.89
2022-08-07T09:37:14.936Z,36.23
2022-08-07T09:39:53.611Z,37.11
2022-08-07T09:42:24.865Z,37.37
2022-08-07T09:47:24.425Z,36.93
2022-08-07T09:48:01.399Z,36.36
2022-08-07T09:50:52.297Z,36.22
2022-08-07T09:53:20.308Z,36.03
2022-08-07T09:56:03.534Z,36.29
2022-08-07T09:58:51.201Z,36.58
2022-08-07T10:01:52.089Z,36.85
2022-08-07T10:04:28.074Z,37.05
2022-08-07T10:07:24.190Z,35.69
2022-08-07T10:10:02.440Z,34.55
2022-08-07T10:12:53.163Z,33.98
2022-08-07T10:15:30.834Z,32.76
2022-08-07T10:18:09.116Z,31.37
2022-08-07T10:20:45.473Z,30.27
2022-08-07T10:24:06.442Z,29.94
2022-08-07T10:26:27.334Z,30.18
2022-08-07T10:28:54.285Z,32.95
2022-08-07T10:31:40.922Z,34.31
2022-08-07T10:34:55.234Z,35.77
2022-08-07T10:37:48.118Z,35.12
2022-08-07T10:40:30.062Z,35.12
2022-08-07T10:42:59.154Z,33.21
2022-08-07T10:48:41.620Z,31.74
2022-08-07T10:51:16.770Z,30.03
2022-08-07T10:54:07.249Z,29.55
2022-08-07T10:56:43.829Z,29.04
2022-08-07T10:59:30.470Z,27.39
2022-08-07T11:02:33.462Z,28.10
2022-08-07T11:05:20.005Z,29.06
2022-08-07T11:08:00.321Z,27.67
2022-08-07T11:10:28.410Z,27.20
2022-08-07T11:13:04.594Z,26.20
2022-08-07T11:15:33.298Z,25.38
2022-08-07T11:18:04.336Z,24.36
2022-08-07T11:20:31.401Z,24.93
2022-08-07T11:23:01.421Z,25.13
2022-08-07T11:25:47.987Z,25.42
2022-08-07T11:28:18.269Z,24.69
2022-08-07T11:31:08.935Z,24.46
2022-08-07T11:33:59.212Z,24.37
2022-08-07T11:36:41.388Z,23.93
2022-08-07T11:39:20.581Z,23.48
2022-08-07T11:42:02.899Z,24.07
2022-08-07T11:44:57.693Z,25.70
2022-08-07T11:47:59.145Z,26.29
2022-08-07T11:50:35.087Z,27.10
2022-08-07T11:53:05.064Z,27.69
2022-08-07T11:56:25.888Z,27.67
2022-08-07T11:58:38.250Z,28.27
2022-08-07T12:01:06.844Z,28.12
2022-08-07T12:03:45.022Z,27.87
2022-08-07T12:06:37.604Z,27.95
2022-08-07T12:09:09.819Z,28.01
2022-08-07T12:12:10.592Z,27.91
2022-08-07T12:14:34.261Z,27.39
2022-08-07T12:17:20.005Z,30.79
2022-08-07T12:20:04.707Z,35.36
2022-08-07T12:22:46.996Z,35.94
2022-08-07T12:26:05.853Z,36.19
2022-08-07T12:28:35.424Z,33.77
2022-08-07T12:31:06.017Z,32.07
2022-08-07T12:33:56.052Z,31.49
2022-08-07T12:36:33.050Z,30.78
2022-08-07T12:39:42.645Z,33.01
2022-08-07T12:41:54.841Z,34.92
2022-08-07T12:44:21.904Z,37.06
2022-08-07T12:47:07.679Z,35.81
2022-08-07T12:50:04.614Z,34.23
2022-08-07T12:52:35.302Z,36.86
2022-08-07T12:55:16.378Z,39.29
2022-08-07T12:58:01.050Z,40.00
2022-08-07T13:00:34.543Z,39.29
2022-08-07T13:03:54.675Z,38.99
2022-08-07T13:06:29.218Z,40.11
2022-08-07T13:10:10.026Z,41.61
2022-08-07T13:12:03.505Z,42.38
2022-08-07T13:14:51.036Z,42.74
2022-08-07T13:17:21.763Z,43.67
2022-08-07T13:20:14.875Z,43.88
2022-08-07T13:22:53.416Z,44.37
2022-08-07T13:25:31.047Z,44.42
2022-08-07T13:28:28.856Z,44.46
2022-08-07T13:31:06.437Z,44.06
2022-08-07T13:34:33.453Z,44.05
2022-08-07T13:36:39.877Z,43.29
2022-08-07T13:39:12.885Z,42.48
2022-08-07T13:41:58.033Z,42.86
2022-08-07T13:44:34.655Z,43.11
2022-08-07T13:47:04.912Z,43.05
2022-08-07T13:50:34.508Z,43.31
2022-08-07T13:52:36.233Z,44.59
2022-08-07T13:55:19.467Z,44.12
2022-08-07T13:58:27.607Z,44.09
2022-08-07T14:01:00.165Z,44.21
2022-08-07T14:04:05.430Z,43.80
2022-08-07T14:06:38.343Z,44.52
2022-08-07T14:09:06.139Z,45.06
2022-08-07T14:11:53.140Z,45.76
2022-08-07T14:14:24.121Z,46.47
2022-08-07T14:16:53.486Z,46.80
2022-08-07T14:20:40.932Z,46.33
2022-08-07T14:22:33.926Z,46.95
2022-08-07T14:25:12.872Z,47.53
2022-08-07T14:28:11.317Z,47.74
2022-08-07T14:30:32.717Z,47.03
2022-08-07T14:33:01.871Z,47.17
2022-08-07T14:35:44.853Z,47.02
2022-08-07T14:38:26.279Z,46.91
2022-08-07T14:41:14.713Z,46.73
2022-08-07T14:49:56.923Z,46.52
2022-08-07T14:52:10.541Z,45.94
2022-08-07T14:57:58.098Z,46.95
2022-08-07T15:03:16.531Z,46.60
2022-08-07T15:05:55.193Z,46.92
2022-08-07T15:08:33.446Z,47.59
2022-08-07T15:11:02.301Z,48.13
2022-08-07T15:13:36.879Z,48.72
2022-08-07T15:16:10.844Z,49.19
2022-08-07T15:21:58.659Z,49.13
2022-08-07T15:25:13.618Z,49.16
2022-08-07T15:36:02.007Z,50.41
2022-08-07T15:41:24.235Z,50.54
2022-08-07T15:44:10.677Z,50.99
2022-08-07T15:46:48.573Z,51.29
2022-08-07T15:49:25.573Z,51.14
2022-08-07T15:54:47.723Z,51.38
2022-08-07T15:57:39.795Z,51.54
2022-08-07T16:00:31.186Z,51.17
2022-08-07T16:02:59.404Z,50.89
2022-08-07T16:05:30.959Z,51.01
2022-08-07T16:08:33.394Z,50.81
2022-08-07T16:10:54.872Z,51.02
2022-08-07T16:14:00.225Z,51.54
2022-08-07T16:16:48.944Z,51.97
2022-08-07T16:19:41.802Z,52.49
2022-08-07T16:22:34.030Z,53.11
2022-08-07T16:25:07.730Z,53.13
2022-08-07T16:27:39.967Z,54.00
2022-08-07T16:30:31.982Z,55.34
2022-08-07T16:34:02.136Z,55.60
2022-08-07T16:36:19.724Z,56.31
2022-08-07T16:39:01.224Z,56.31
2022-08-07T16:41:41.570Z,57.03
2022-08-07T16:45:14.038Z,57.03
2022-08-07T16:47:56.599Z,57.27
2022-08-07T16:50:39.239Z,57.23
2022-08-07T16:54:01.712Z,57.47
2022-08-07T16:56:10.384Z,57.83
2022-08-07T16:59:10.676Z,57.74
2022-08-07T17:02:02.954Z,57.39
2022-08-07T17:04:57.423Z,57.51
2022-08-07T17:07:56.022Z,57.50
2022-08-07T17:10:33.348Z,57.28
2022-08-07T17:13:01.053Z,57.52
2022-08-07T17:15:44.122Z,57.26
2022-08-07T17:18:16.518Z,57.42
2022-08-07T17:20:47.827Z,57.53
2022-08-07T17:23:32.532Z,57.78
2022-08-07T17:26:23.233Z,57.77
2022-08-07T17:28:58.031Z,57.49
2022-08-07T17:32:02.831Z,57.69
2022-08-07T17:35:33.070Z,58.14
2022-08-07T17:38:06.062Z,57.72
2022-08-07T17:40:30.384Z,58.10
2022-08-07T17:43:15.235Z,57.57
2022-08-07T17:46:07.795Z,57.95
2022-08-07T17:49:00.800Z,57.87
2022-08-07T17:52:00.110Z,57.79
2022-08-07T17:54:39.860Z,58.30
2022-08-07T17:57:56.024Z,58.16
2022-08-07T18:00:33.136Z,58.60
2022-08-07T18:03:05.414Z,58.63
2022-08-07T18:09:05.696Z,59.33
2022-08-07T18:12:16.015Z,59.52
2022-08-07T18:14:23.832Z,59.84
2022-08-07T18:16:58.115Z,59.67
2022-08-07T18:21:08.362Z,59.24
2022-08-07T18:22:35.444Z,58.86
2022-08-07T18:25:19.123Z,59.71
2022-08-07T18:28:34.157Z,60.20
2022-08-07T18:31:08.957Z,60.66
2022-08-07T18:33:55.367Z,60.91
2022-08-07T18:36:38.220Z,61.38
2022-08-07T18:40:07.534Z,61.61
2022-08-07T18:42:08.450Z,61.60
2022-08-07T18:45:43.854Z,62.16
2022-08-07T18:47:44.849Z,62.28
2022-08-07T18:50:37.936Z,62.88
2022-08-07T18:53:37.039Z,63.09
2022-08-07T18:56:14.848Z,63.47
2022-08-07T18:58:51.213Z,63.77
2022-08-07T19:02:32.280Z,63.74
2022-08-07T19:04:09.819Z,64.37
2022-08-07T19:07:12.715Z,64.23
2022-08-07T19:09:56.851Z,64.76
2022-08-07T19:12:34.410Z,64.87
2022-08-07T19:16:02.173Z,64.82
2022-08-07T19:18:11.666Z,64.89
2022-08-07T19:21:08.544Z,64.96
2022-08-07T19:23:58.423Z,64.85
2022-08-07T19:26:23.467Z,65.12
2022-08-07T19:31:01.227Z,65.06
2022-08-07T19:32:10.955Z,64.93
2022-08-07T19:34:40.417Z,65.03
2022-08-07T19:37:17.001Z,64.72
2022-08-07T19:39:57.026Z,64.73
2022-08-07T19:42:31.514Z,64.42
2022-08-07T19:45:08.629Z,64.27
2022-08-07T19:47:38.241Z,64.06
2022-08-07T19:50:44.392Z,63.68
2022-08-07T19:52:59.233Z,63.57
2022-08-07T19:55:58.045Z,63.53
2022-08-07T19:58:28.149Z,63.73
2022-08-07T20:00:59.637Z,63.67
2022-08-07T20:03:35.010Z,63.54
2022-08-07T20:06:04.008Z,63.51
2022-08-07T20:08:36.429Z,63.66
2022-08-07T20:11:15.160Z,64.14
2022-08-07T20:16:54.416Z,64.28
2022-08-07T20:19:48.074Z,64.68
2022-08-07T20:22:16.638Z,65.22
2022-08-07T20:24:57.408Z,65.16
2022-08-07T20:27:46.352Z,65.89
2022-08-07T20:30:28.078Z,66.84
2022-08-07T20:32:57.762Z,67.91
2022-08-07T20:35:36.553Z,68.99
2022-08-07T20:38:21.668Z,69.46
2022-08-07T20:40:51.530Z,70.21
2022-08-07T20:43:20.056Z,70.17
2022-08-07T20:46:26.961Z,70.63
2022-08-07T20:48:37.693Z,70.58
2022-08-07T20:51:09.331Z,70.46
2022-08-07T20:54:03.458Z,70.86
2022-08-07T20:56:26.042Z,72.11
2022-08-07T20:58:53.652Z,72.71
2022-08-07T21:01:22.121Z,73.12
2022-08-07T21:04:18.743Z,73.02
2022-08-07T21:06:42.442Z,73.52
2022-08-07T21:09:18.209Z,74.01
2022-08-07T21:11:53.259Z,73.79
2022-08-07T21:14:33.599Z,73.57
2022-08-07T21:18:00.645Z,73.62
2022-08-07T21:19:51.798Z,73.73
2022-08-07T21:22:45.058Z,73.83
2022-08-07T21:25:38.951Z,74.04
2022-08-07T21:28:16.721Z,74.65
2022-08-07T21:31:05.139Z,74.78
2022-08-07T21:33:41.721Z,75.01
2022-08-07T21:36:31.686Z,75.43
2022-08-07T21:38:59.485Z,76.16
2022-08-07T21:41:26.934Z,76.20
2022-08-07T21:44:14.743Z,76.79
2022-08-07T21:47:12.316Z,76.92
2022-08-07T21:50:02.185Z,76.50
2022-08-07T21:52:34.047Z,76.28
2022-08-07T21:55:29.876Z,76.32
2022-08-07T21:58:00.214Z,75.95
2022-08-07T22:00:31.103Z,76.59
2022-08-07T22:03:11.003Z,77.28
2022-08-07T22:05:49.880Z,77.58
2022-08-07T22:08:19.621Z,77.45
2022-08-07T22:10:50.152Z,77.05
2022-08-07T22:13:17.349Z,77.55
2022-08-07T22:16:42.749Z,78.77
2022-08-07T22:18:52.112Z,79.67
2022-08-07T22:22:04.467Z,79.60
2022-08-07T22:24:17.944Z,79.67
2022-08-07T22:26:51.148Z,79.76
2022-08-07T22:29:38.122Z,79.50
2022-08-07T22:32:10.593Z,80.06
2022-08-07T22:35:03.364Z,80.25
2022-08-07T22:38:03.888Z,80.01
2022-08-07T22:40:31.623Z,80.15
2022-08-07T22:43:33.816Z,80.53
2022-08-07T22:46:21.715Z,81.14
2022-08-07T22:49:02.125Z,81.22
2022-08-07T22:51:49.131Z,81.52
2022-08-07T22:54:24.702Z,81.83
2022-08-07T22:57:17.035Z,81.61
2022-08-07T22:59:50.259Z,81.37
2022-08-07T23:02:27.619Z,81.52
2022-08-07T23:06:07.200Z,81.80
2022-08-07T23:07:58.595Z,81.45
2022-08-07T23:10:42.018Z,81.22
2022-08-07T23:13:12.279Z,81.00
2022-08-07T23:16:07.148Z,80.85
2022-08-07T23:18:35.681Z,80.67
2022-08-07T23:21:16.225Z,80.48
2022-08-07T23:24:06.184Z,80.16
2022-08-07T23:26:57.495Z,80.07
2022-08-07T23:30:35.925Z,79.84
2022-08-07T23:34:21.702Z,79.83
2022-08-07T23:36:02.636Z,79.45
2022-08-07T23:38:42.701Z,79.25
2022-08-07T23:41:33.390Z,79.00
2022-08-07T23:44:03.457Z,79.10
2022-08-07T23:46:53.724Z,79.10
2022-08-07T23:49:42.188Z,79.28
2022-08-07T23:53:00.750Z,79.62
2022-08-07T23:55:52.986Z,79.56
2022-08-07T23:58:21.589Z,79.36
